sensor_id;sensor_type;location;lat;lon;timestamp;P1;durP1;ratioP1;P2;durP2;ratioP2
57465;SDS011;67033;44.984;20.068;2023-04-25T00:01:29;10.40;;;7.47;;
57465;SDS011;67033;44.984;20.068;2023-04-25T00:03:55;9.15;;;7.57;;
57465;SDS011;67033;44.984;20.068;2023-04-25T00:06:22;10.45;;;7.40;;
57465;SDS011;67033;44.984;20.068;2023-04-25T00:11:18;10.32;;;7.80;;
57465;SDS011;67033;44.984;20.068;2023-04-25T00:13:44;9.25;;;8.30;;
57465;SDS011;67033;44.984;20.068;2023-04-25T00:16:11;9.55;;;7.43;;
57465;SDS011;67033;44.984;20.068;2023-04-25T00:18:40;8.83;;;7.30;;
57465;SDS011;67033;44.984;20.068;2023-04-25T00:21:06;9.40;;;7.90;;
57465;SDS011;67033;44.984;20.068;2023-04-25T00:23:32;8.85;;;7.95;;
57465;SDS011;67033;44.984;20.068;2023-04-25T00:26:00;8.50;;;7.18;;
57465;SDS011;67033;44.984;20.068;2023-04-25T00:28:26;7.53;;;6.85;;
57465;SDS011;67033;44.984;20.068;2023-04-25T00:30:53;9.98;;;7.30;;
57465;SDS011;67033;44.984;20.068;2023-04-25T00:33:19;8.45;;;7.03;;
57465;SDS011;67033;44.984;20.068;2023-04-25T00:35:46;8.25;;;7.32;;
57465;SDS011;67033;44.984;20.068;2023-04-25T00:38:12;8.02;;;7.22;;
57465;SDS011;67033;44.984;20.068;2023-04-25T00:40:38;8.27;;;7.28;;
57465;SDS011;67033;44.984;20.068;2023-04-25T00:43:04;7.95;;;7.15;;
57465;SDS011;67033;44.984;20.068;2023-04-25T00:45:31;9.48;;;7.30;;
57465;SDS011;67033;44.984;20.068;2023-04-25T00:47:57;8.60;;;7.80;;
57465;SDS011;67033;44.984;20.068;2023-04-25T00:50:24;9.70;;;7.32;;
57465;SDS011;67033;44.984;20.068;2023-04-25T00:52:50;11.05;;;8.35;;
57465;SDS011;67033;44.984;20.068;2023-04-25T00:55:17;9.43;;;7.38;;
57465;SDS011;67033;44.984;20.068;2023-04-25T00:57:43;8.30;;;7.43;;
57465;SDS011;67033;44.984;20.068;2023-04-25T01:00:10;8.32;;;6.68;;
57465;SDS011;67033;44.984;20.068;2023-04-25T01:02:36;9.40;;;6.47;;
57465;SDS011;67033;44.984;20.068;2023-04-25T01:05:03;7.60;;;5.93;;
57465;SDS011;67033;44.984;20.068;2023-04-25T01:07:29;6.45;;;5.20;;
57465;SDS011;67033;44.984;20.068;2023-04-25T01:09:55;6.47;;;5.22;;
57465;SDS011;67033;44.984;20.068;2023-04-25T01:12:22;7.13;;;4.78;;
57465;SDS011;67033;44.984;20.068;2023-04-25T01:14:49;6.40;;;4.72;;
57465;SDS011;67033;44.984;20.068;2023-04-25T01:17:15;5.18;;;4.13;;
57465;SDS011;67033;44.984;20.068;2023-04-25T01:19:42;6.25;;;4.50;;
57465;SDS011;67033;44.984;20.068;2023-04-25T01:22:11;5.18;;;4.20;;
57465;SDS011;67033;44.984;20.068;2023-04-25T01:24:37;8.63;;;3.70;;
57465;SDS011;67033;44.984;20.068;2023-04-25T01:27:04;5.18;;;4.10;;
57465;SDS011;67033;44.984;20.068;2023-04-25T01:29:30;6.15;;;3.70;;
57465;SDS011;67033;44.984;20.068;2023-04-25T01:31:56;3.95;;;3.53;;
57465;SDS011;67033;44.984;20.068;2023-04-25T01:34:23;4.22;;;3.13;;
57465;SDS011;67033;44.984;20.068;2023-04-25T01:36:50;5.63;;;3.20;;
57465;SDS011;67033;44.984;20.068;2023-04-25T01:39:17;5.50;;;3.05;;
57465;SDS011;67033;44.984;20.068;2023-04-25T01:41:44;3.83;;;2.80;;
57465;SDS011;67033;44.984;20.068;2023-04-25T01:44:10;4.03;;;3.13;;
57465;SDS011;67033;44.984;20.068;2023-04-25T01:46:36;2.65;;;2.45;;
57465;SDS011;67033;44.984;20.068;2023-04-25T01:49:03;3.22;;;2.85;;
57465;SDS011;67033;44.984;20.068;2023-04-25T01:51:29;3.28;;;2.97;;
57465;SDS011;67033;44.984;20.068;2023-04-25T01:53:57;5.18;;;3.08;;
57465;SDS011;67033;44.984;20.068;2023-04-25T01:56:23;6.47;;;3.03;;
57465;SDS011;67033;44.984;20.068;2023-04-25T01:58:50;6.65;;;3.28;;
57465;SDS011;67033;44.984;20.068;2023-04-25T02:01:16;4.32;;;2.97;;
57465;SDS011;67033;44.984;20.068;2023-04-25T02:03:43;4.78;;;3.05;;
57465;SDS011;67033;44.984;20.068;2023-04-25T02:06:09;4.53;;;3.17;;
57465;SDS011;67033;44.984;20.068;2023-04-25T02:08:35;6.10;;;2.92;;
57465;SDS011;67033;44.984;20.068;2023-04-25T02:11:02;4.90;;;2.67;;
57465;SDS011;67033;44.984;20.068;2023-04-25T02:13:29;6.07;;;3.30;;
57465;SDS011;67033;44.984;20.068;2023-04-25T02:15:55;5.88;;;3.10;;
57465;SDS011;67033;44.984;20.068;2023-04-25T02:18:21;6.88;;;3.53;;
57465;SDS011;67033;44.984;20.068;2023-04-25T02:20:48;4.90;;;3.30;;
57465;SDS011;67033;44.984;20.068;2023-04-25T02:23:14;5.70;;;4.18;;
57465;SDS011;67033;44.984;20.068;2023-04-25T02:25:41;7.20;;;3.70;;
57465;SDS011;67033;44.984;20.068;2023-04-25T02:28:07;4.95;;;3.67;;
57465;SDS011;67033;44.984;20.068;2023-04-25T02:30:33;4.18;;;3.78;;
57465;SDS011;67033;44.984;20.068;2023-04-25T02:33:00;5.97;;;3.85;;
57465;SDS011;67033;44.984;20.068;2023-04-25T02:35:26;5.35;;;4.13;;
57465;SDS011;67033;44.984;20.068;2023-04-25T02:37:52;6.18;;;4.00;;
57465;SDS011;67033;44.984;20.068;2023-04-25T02:40:19;5.47;;;4.00;;
57465;SDS011;67033;44.984;20.068;2023-04-25T02:42:45;6.53;;;4.55;;
57465;SDS011;67033;44.984;20.068;2023-04-25T02:45:11;6.38;;;3.63;;
57465;SDS011;67033;44.984;20.068;2023-04-25T02:47:38;4.20;;;3.80;;
57465;SDS011;67033;44.984;20.068;2023-04-25T02:50:04;7.13;;;4.20;;
57465;SDS011;67033;44.984;20.068;2023-04-25T02:52:30;5.45;;;3.90;;
57465;SDS011;67033;44.984;20.068;2023-04-25T02:54:57;6.80;;;4.20;;
57465;SDS011;67033;44.984;20.068;2023-04-25T02:57:23;7.78;;;4.25;;
57465;SDS011;67033;44.984;20.068;2023-04-25T02:59:49;5.22;;;4.07;;
57465;SDS011;67033;44.984;20.068;2023-04-25T03:02:15;3.95;;;3.53;;
57465;SDS011;67033;44.984;20.068;2023-04-25T03:04:42;6.13;;;3.55;;
57465;SDS011;67033;44.984;20.068;2023-04-25T03:07:08;4.57;;;3.72;;
57465;SDS011;67033;44.984;20.068;2023-04-25T03:09:34;4.75;;;3.65;;
57465;SDS011;67033;44.984;20.068;2023-04-25T03:12:00;4.97;;;3.70;;
57465;SDS011;67033;44.984;20.068;2023-04-25T03:14:26;5.15;;;3.60;;
57465;SDS011;67033;44.984;20.068;2023-04-25T03:16:53;6.35;;;4.75;;
57465;SDS011;67033;44.984;20.068;2023-04-25T03:19:19;4.00;;;3.55;;
57465;SDS011;67033;44.984;20.068;2023-04-25T03:21:45;4.63;;;3.47;;
57465;SDS011;67033;44.984;20.068;2023-04-25T03:24:11;4.00;;;3.58;;
57465;SDS011;67033;44.984;20.068;2023-04-25T03:26:38;5.57;;;3.92;;
57465;SDS011;67033;44.984;20.068;2023-04-25T03:29:04;6.20;;;3.40;;
57465;SDS011;67033;44.984;20.068;2023-04-25T03:31:30;5.60;;;3.47;;
57465;SDS011;67033;44.984;20.068;2023-04-25T03:33:57;4.05;;;3.08;;
57465;SDS011;67033;44.984;20.068;2023-04-25T03:36:23;4.70;;;3.25;;
57465;SDS011;67033;44.984;20.068;2023-04-25T03:38:49;3.72;;;3.10;;
57465;SDS011;67033;44.984;20.068;2023-04-25T03:41:15;3.90;;;3.30;;
57465;SDS011;67033;44.984;20.068;2023-04-25T03:43:42;4.28;;;3.60;;
57465;SDS011;67033;44.984;20.068;2023-04-25T03:46:08;4.50;;;3.20;;
57465;SDS011;67033;44.984;20.068;2023-04-25T03:48:34;4.75;;;3.38;;
57465;SDS011;67033;44.984;20.068;2023-04-25T03:51:01;5.05;;;3.70;;
57465;SDS011;67033;44.984;20.068;2023-04-25T03:53:27;5.07;;;3.80;;
57465;SDS011;67033;44.984;20.068;2023-04-25T03:55:53;6.07;;;3.90;;
57465;SDS011;67033;44.984;20.068;2023-04-25T03:58:20;5.75;;;3.30;;
57465;SDS011;67033;44.984;20.068;2023-04-25T04:00:48;4.28;;;3.17;;
57465;SDS011;67033;44.984;20.068;2023-04-25T04:03:14;1.88;;;1.67;;
57465;SDS011;67033;44.984;20.068;2023-04-25T04:05:40;5.70;;;1.88;;
57465;SDS011;67033;44.984;20.068;2023-04-25T04:08:07;1.83;;;1.52;;
57465;SDS011;67033;44.984;20.068;2023-04-25T04:10:33;2.17;;;1.80;;
57465;SDS011;67033;44.984;20.068;2023-04-25T04:12:59;2.58;;;1.88;;
57465;SDS011;67033;44.984;20.068;2023-04-25T04:15:25;3.70;;;1.90;;
57465;SDS011;67033;44.984;20.068;2023-04-25T04:17:52;2.75;;;2.03;;
57465;SDS011;67033;44.984;20.068;2023-04-25T04:20:19;2.50;;;2.10;;
57465;SDS011;67033;44.984;20.068;2023-04-25T04:22:46;2.25;;;2.05;;
57465;SDS011;67033;44.984;20.068;2023-04-25T04:25:12;4.18;;;1.95;;
57465;SDS011;67033;44.984;20.068;2023-04-25T04:27:38;1.83;;;1.67;;
57465;SDS011;67033;44.984;20.068;2023-04-25T04:30:05;2.13;;;2.00;;
57465;SDS011;67033;44.984;20.068;2023-04-25T04:32:32;5.10;;;1.92;;
57465;SDS011;67033;44.984;20.068;2023-04-25T04:34:59;3.95;;;1.90;;
57465;SDS011;67033;44.984;20.068;2023-04-25T04:37:25;6.57;;;1.92;;
57465;SDS011;67033;44.984;20.068;2023-04-25T04:39:52;3.25;;;2.67;;
57465;SDS011;67033;44.984;20.068;2023-04-25T04:42:18;2.58;;;2.28;;
57465;SDS011;67033;44.984;20.068;2023-04-25T04:44:44;3.13;;;2.63;;
57465;SDS011;67033;44.984;20.068;2023-04-25T04:47:10;3.20;;;2.78;;
57465;SDS011;67033;44.984;20.068;2023-04-25T04:49:39;3.78;;;3.05;;
57465;SDS011;67033;44.984;20.068;2023-04-25T04:52:05;6.00;;;3.45;;
57465;SDS011;67033;44.984;20.068;2023-04-25T04:54:31;3.88;;;2.88;;
57465;SDS011;67033;44.984;20.068;2023-04-25T04:56:57;3.88;;;2.95;;
57465;SDS011;67033;44.984;20.068;2023-04-25T04:59:23;4.22;;;2.80;;
57465;SDS011;67033;44.984;20.068;2023-04-25T05:01:50;5.00;;;2.47;;
57465;SDS011;67033;44.984;20.068;2023-04-25T05:04:16;2.90;;;2.60;;
57465;SDS011;67033;44.984;20.068;2023-04-25T05:06:42;3.83;;;3.40;;
57465;SDS011;67033;44.984;20.068;2023-04-25T05:09:09;3.20;;;2.80;;
57465;SDS011;67033;44.984;20.068;2023-04-25T05:11:35;4.00;;;2.83;;
57465;SDS011;67033;44.984;20.068;2023-04-25T05:14:01;3.22;;;2.47;;
57465;SDS011;67033;44.984;20.068;2023-04-25T05:16:28;2.63;;;2.42;;
57465;SDS011;67033;44.984;20.068;2023-04-25T05:18:54;4.68;;;2.65;;
57465;SDS011;67033;44.984;20.068;2023-04-25T05:21:20;3.35;;;2.70;;
57465;SDS011;67033;44.984;20.068;2023-04-25T05:23:46;2.70;;;2.47;;
57465;SDS011;67033;44.984;20.068;2023-04-25T05:26:12;6.63;;;2.50;;
57465;SDS011;67033;44.984;20.068;2023-04-25T05:28:39;24.92;;;4.43;;
57465;SDS011;67033;44.984;20.068;2023-04-25T05:31:06;2.28;;;2.08;;
57465;SDS011;67033;44.984;20.068;2023-04-25T05:33:33;2.72;;;2.13;;
57465;SDS011;67033;44.984;20.068;2023-04-25T05:35:59;3.53;;;2.53;;
57465;SDS011;67033;44.984;20.068;2023-04-25T05:38:25;3.95;;;2.70;;
57465;SDS011;67033;44.984;20.068;2023-04-25T05:40:51;2.45;;;2.10;;
57465;SDS011;67033;44.984;20.068;2023-04-25T05:43:18;3.05;;;2.85;;
57465;SDS011;67033;44.984;20.068;2023-04-25T05:45:44;4.22;;;2.22;;
57465;SDS011;67033;44.984;20.068;2023-04-25T05:48:10;2.88;;;2.00;;
57465;SDS011;67033;44.984;20.068;2023-04-25T05:50:37;2.30;;;1.90;;
57465;SDS011;67033;44.984;20.068;2023-04-25T05:53:03;3.22;;;1.80;;
57465;SDS011;67033;44.984;20.068;2023-04-25T05:55:31;3.67;;;2.13;;
57465;SDS011;67033;44.984;20.068;2023-04-25T05:57:57;3.88;;;2.00;;
57465;SDS011;67033;44.984;20.068;2023-04-25T06:00:23;3.38;;;2.30;;
57465;SDS011;67033;44.984;20.068;2023-04-25T06:02:49;3.47;;;2.20;;
57465;SDS011;67033;44.984;20.068;2023-04-25T06:05:15;2.83;;;2.05;;
57465;SDS011;67033;44.984;20.068;2023-04-25T06:07:42;2.30;;;2.10;;
57465;SDS011;67033;44.984;20.068;2023-04-25T06:10:09;5.32;;;2.75;;
57465;SDS011;67033;44.984;20.068;2023-04-25T06:12:35;4.55;;;3.58;;
57465;SDS011;67033;44.984;20.068;2023-04-25T06:15:01;2.72;;;2.40;;
57465;SDS011;67033;44.984;20.068;2023-04-25T06:17:27;5.43;;;3.30;;
57465;SDS011;67033;44.984;20.068;2023-04-25T06:19:53;6.95;;;3.83;;
57465;SDS011;67033;44.984;20.068;2023-04-25T06:22:19;4.93;;;3.15;;
57465;SDS011;67033;44.984;20.068;2023-04-25T06:24:46;3.13;;;2.83;;
57465;SDS011;67033;44.984;20.068;2023-04-25T06:27:12;3.20;;;2.90;;
57465;SDS011;67033;44.984;20.068;2023-04-25T06:29:38;3.25;;;2.75;;
57465;SDS011;67033;44.984;20.068;2023-04-25T06:32:05;4.57;;;3.00;;
57465;SDS011;67033;44.984;20.068;2023-04-25T06:34:31;3.30;;;2.10;;
57465;SDS011;67033;44.984;20.068;2023-04-25T06:36:57;5.85;;;2.55;;
57465;SDS011;67033;44.984;20.068;2023-04-25T06:39:23;4.90;;;2.90;;
57465;SDS011;67033;44.984;20.068;2023-04-25T06:41:50;2.40;;;2.20;;
57465;SDS011;67033;44.984;20.068;2023-04-25T06:44:16;3.40;;;2.58;;
57465;SDS011;67033;44.984;20.068;2023-04-25T06:46:42;5.28;;;2.80;;
57465;SDS011;67033;44.984;20.068;2023-04-25T06:49:09;4.65;;;3.00;;
57465;SDS011;67033;44.984;20.068;2023-04-25T06:51:35;2.35;;;1.98;;
57465;SDS011;67033;44.984;20.068;2023-04-25T06:54:01;3.22;;;2.30;;
57465;SDS011;67033;44.984;20.068;2023-04-25T06:56:29;6.38;;;2.70;;
57465;SDS011;67033;44.984;20.068;2023-04-25T06:58:56;3.42;;;2.28;;
57465;SDS011;67033;44.984;20.068;2023-04-25T07:01:22;3.70;;;2.30;;
57465;SDS011;67033;44.984;20.068;2023-04-25T07:03:48;4.20;;;2.20;;
57465;SDS011;67033;44.984;20.068;2023-04-25T07:06:14;3.97;;;2.65;;
57465;SDS011;67033;44.984;20.068;2023-04-25T07:08:40;4.97;;;2.70;;
57465;SDS011;67033;44.984;20.068;2023-04-25T07:11:07;5.13;;;2.97;;
57465;SDS011;67033;44.984;20.068;2023-04-25T07:13:33;5.72;;;3.05;;
57465;SDS011;67033;44.984;20.068;2023-04-25T07:15:59;4.65;;;2.90;;
57465;SDS011;67033;44.984;20.068;2023-04-25T07:18:25;3.22;;;2.55;;
57465;SDS011;67033;44.984;20.068;2023-04-25T07:20:52;5.97;;;2.42;;
57465;SDS011;67033;44.984;20.068;2023-04-25T07:23:18;5.40;;;2.60;;
57465;SDS011;67033;44.984;20.068;2023-04-25T07:25:44;3.53;;;2.25;;
57465;SDS011;67033;44.984;20.068;2023-04-25T07:28:10;4.90;;;2.63;;
57465;SDS011;67033;44.984;20.068;2023-04-25T07:30:37;3.70;;;2.58;;
57465;SDS011;67033;44.984;20.068;2023-04-25T07:33:03;3.47;;;2.28;;
57465;SDS011;67033;44.984;20.068;2023-04-25T07:35:29;2.45;;;1.80;;
57465;SDS011;67033;44.984;20.068;2023-04-25T07:37:55;2.72;;;2.30;;
57465;SDS011;67033;44.984;20.068;2023-04-25T07:40:22;4.85;;;2.08;;
57465;SDS011;67033;44.984;20.068;2023-04-25T07:42:48;7.97;;;2.78;;
57465;SDS011;67033;44.984;20.068;2023-04-25T07:45:13;3.22;;;2.40;;
57465;SDS011;67033;44.984;20.068;2023-04-25T07:47:40;5.38;;;2.00;;
57465;SDS011;67033;44.984;20.068;2023-04-25T07:50:06;2.47;;;2.00;;
57465;SDS011;67033;44.984;20.068;2023-04-25T07:52:32;5.22;;;2.90;;
57465;SDS011;67033;44.984;20.068;2023-04-25T07:54:58;4.55;;;2.10;;
57465;SDS011;67033;44.984;20.068;2023-04-25T07:57:25;3.80;;;2.55;;
57465;SDS011;67033;44.984;20.068;2023-04-25T07:59:51;4.38;;;2.25;;
57465;SDS011;67033;44.984;20.068;2023-04-25T08:02:17;3.67;;;3.00;;
57465;SDS011;67033;44.984;20.068;2023-04-25T08:04:43;5.78;;;2.83;;
57465;SDS011;67033;44.984;20.068;2023-04-25T08:07:10;11.45;;;4.70;;
57465;SDS011;67033;44.984;20.068;2023-04-25T08:09:36;10.65;;;6.90;;
57465;SDS011;67033;44.984;20.068;2023-04-25T08:12:03;4.97;;;2.22;;
57465;SDS011;67033;44.984;20.068;2023-04-25T08:14:29;3.33;;;2.63;;
57465;SDS011;67033;44.984;20.068;2023-04-25T08:17:01;4.88;;;2.08;;
57465;SDS011;67033;44.984;20.068;2023-04-25T08:19:28;3.20;;;2.00;;
57465;SDS011;67033;44.984;20.068;2023-04-25T08:21:55;1.60;;;1.50;;
57465;SDS011;67033;44.984;20.068;2023-04-25T08:24:22;2.95;;;2.10;;
57465;SDS011;67033;44.984;20.068;2023-04-25T08:26:48;5.50;;;3.15;;
57465;SDS011;67033;44.984;20.068;2023-04-25T08:29:15;7.80;;;2.03;;
57465;SDS011;67033;44.984;20.068;2023-04-25T08:31:41;3.85;;;1.85;;
57465;SDS011;67033;44.984;20.068;2023-04-25T08:34:07;3.63;;;2.03;;
57465;SDS011;67033;44.984;20.068;2023-04-25T08:36:33;3.95;;;1.88;;
57465;SDS011;67033;44.984;20.068;2023-04-25T08:38:59;1.95;;;1.40;;
57465;SDS011;67033;44.984;20.068;2023-04-25T08:41:25;4.55;;;2.05;;
57465;SDS011;67033;44.984;20.068;2023-04-25T08:43:53;4.18;;;1.83;;
57465;SDS011;67033;44.984;20.068;2023-04-25T08:46:21;2.80;;;2.10;;
57465;SDS011;67033;44.984;20.068;2023-04-25T08:48:48;3.17;;;2.30;;
57465;SDS011;67033;44.984;20.068;2023-04-25T08:51:20;2.88;;;1.60;;
57465;SDS011;67033;44.984;20.068;2023-04-25T08:53:48;3.08;;;1.98;;
57465;SDS011;67033;44.984;20.068;2023-04-25T08:56:18;20.15;;;3.55;;
57465;SDS011;67033;44.984;20.068;2023-04-25T08:58:48;2.75;;;1.92;;
57465;SDS011;67033;44.984;20.068;2023-04-25T09:01:18;10.57;;;2.15;;
57465;SDS011;67033;44.984;20.068;2023-04-25T09:03:44;3.22;;;2.30;;
57465;SDS011;67033;44.984;20.068;2023-04-25T09:06:12;2.88;;;2.00;;
57465;SDS011;67033;44.984;20.068;2023-04-25T09:08:38;5.07;;;1.63;;
57465;SDS011;67033;44.984;20.068;2023-04-25T09:11:06;2.53;;;1.80;;
57465;SDS011;67033;44.984;20.068;2023-04-25T09:13:32;2.03;;;1.50;;
57465;SDS011;67033;44.984;20.068;2023-04-25T09:15:58;1.95;;;1.50;;
57465;SDS011;67033;44.984;20.068;2023-04-25T09:18:28;4.57;;;1.70;;
57465;SDS011;67033;44.984;20.068;2023-04-25T09:21:05;2.30;;;1.70;;
57465;SDS011;67033;44.984;20.068;2023-04-25T09:23:38;2.33;;;1.40;;
57465;SDS011;67033;44.984;20.068;2023-04-25T09:26:15;1.90;;;1.70;;
57465;SDS011;67033;44.984;20.068;2023-04-25T09:28:43;2.08;;;1.48;;
57465;SDS011;67033;44.984;20.068;2023-04-25T09:31:11;3.88;;;1.48;;
57465;SDS011;67033;44.984;20.068;2023-04-25T09:33:37;3.70;;;2.13;;
57465;SDS011;67033;44.984;20.068;2023-04-25T09:36:07;2.45;;;1.80;;
57465;SDS011;67033;44.984;20.068;2023-04-25T09:38:44;1.90;;;1.60;;
57465;SDS011;67033;44.984;20.068;2023-04-25T09:41:11;3.80;;;1.83;;
57465;SDS011;67033;44.984;20.068;2023-04-25T09:43:37;5.78;;;1.48;;
57465;SDS011;67033;44.984;20.068;2023-04-25T09:46:08;1.52;;;1.10;;
57465;SDS011;67033;44.984;20.068;2023-04-25T09:48:36;1.98;;;1.20;;
57465;SDS011;67033;44.984;20.068;2023-04-25T09:51:10;1.85;;;1.50;;
57465;SDS011;67033;44.984;20.068;2023-04-25T09:53:39;1.75;;;1.52;;
57465;SDS011;67033;44.984;20.068;2023-04-25T09:56:09;3.65;;;1.65;;
57465;SDS011;67033;44.984;20.068;2023-04-25T09:58:37;4.72;;;2.22;;
57465;SDS011;67033;44.984;20.068;2023-04-25T10:01:07;7.28;;;2.55;;
57465;SDS011;67033;44.984;20.068;2023-04-25T10:03:34;2.50;;;1.50;;
57465;SDS011;67033;44.984;20.068;2023-04-25T10:06:09;2.72;;;1.98;;
57465;SDS011;67033;44.984;20.068;2023-04-25T10:08:39;3.08;;;1.33;;
57465;SDS011;67033;44.984;20.068;2023-04-25T10:11:06;2.60;;;1.20;;
57465;SDS011;67033;44.984;20.068;2023-04-25T10:13:34;6.63;;;1.60;;
57465;SDS011;67033;44.984;20.068;2023-04-25T10:16:01;1.98;;;1.20;;
57465;SDS011;67033;44.984;20.068;2023-04-25T10:18:29;1.27;;;1.17;;
57465;SDS011;67033;44.984;20.068;2023-04-25T10:20:55;1.85;;;0.95;;
57465;SDS011;67033;44.984;20.068;2023-04-25T10:23:26;1.58;;;0.98;;
57465;SDS011;67033;44.984;20.068;2023-04-25T10:25:54;3.63;;;1.52;;
57465;SDS011;67033;44.984;20.068;2023-04-25T10:28:20;2.33;;;1.25;;
57465;SDS011;67033;44.984;20.068;2023-04-25T10:30:57;3.92;;;1.00;;
57465;SDS011;67033;44.984;20.068;2023-04-25T10:33:38;1.58;;;0.98;;
57465;SDS011;67033;44.984;20.068;2023-04-25T10:38:37;5.45;;;1.90;;
57465;SDS011;67033;44.984;20.068;2023-04-25T10:41:07;2.53;;;1.50;;
57465;SDS011;67033;44.984;20.068;2023-04-25T10:43:41;1.88;;;1.65;;
57465;SDS011;67033;44.984;20.068;2023-04-25T10:46:15;1.73;;;1.33;;
57465;SDS011;67033;44.984;20.068;2023-04-25T10:48:48;2.40;;;1.20;;
57465;SDS011;67033;44.984;20.068;2023-04-25T10:51:22;2.88;;;1.63;;
57465;SDS011;67033;44.984;20.068;2023-04-25T10:56:28;4.90;;;1.77;;
57465;SDS011;67033;44.984;20.068;2023-04-25T10:59:08;2.30;;;2.10;;
57465;SDS011;67033;44.984;20.068;2023-04-25T11:01:42;4.10;;;1.75;;
57465;SDS011;67033;44.984;20.068;2023-04-25T11:04:30;1.95;;;1.55;;
57465;SDS011;67033;44.984;20.068;2023-04-25T11:07:07;1.70;;;1.60;;
57465;SDS011;67033;44.984;20.068;2023-04-25T11:09:36;3.40;;;2.10;;
57465;SDS011;67033;44.984;20.068;2023-04-25T11:12:04;4.13;;;2.13;;
57465;SDS011;67033;44.984;20.068;2023-04-25T11:14:30;4.03;;;1.48;;
57465;SDS011;67033;44.984;20.068;2023-04-25T11:16:57;3.35;;;1.80;;
57465;SDS011;67033;44.984;20.068;2023-04-25T11:19:24;3.58;;;1.77;;
57465;SDS011;67033;44.984;20.068;2023-04-25T11:21:54;3.63;;;1.35;;
57465;SDS011;67033;44.984;20.068;2023-04-25T11:24:27;5.28;;;2.40;;
57465;SDS011;67033;44.984;20.068;2023-04-25T11:27:00;5.85;;;1.95;;
57465;SDS011;67033;44.984;20.068;2023-04-25T11:29:28;3.22;;;2.45;;
57465;SDS011;67033;44.984;20.068;2023-04-25T11:31:55;3.20;;;1.50;;
57465;SDS011;67033;44.984;20.068;2023-04-25T11:34:25;3.88;;;2.72;;
57465;SDS011;67033;44.984;20.068;2023-04-25T11:36:51;4.15;;;1.70;;
57465;SDS011;67033;44.984;20.068;2023-04-25T11:39:20;11.32;;;2.60;;
57465;SDS011;67033;44.984;20.068;2023-04-25T11:41:48;3.47;;;1.40;;
57465;SDS011;67033;44.984;20.068;2023-04-25T11:44:15;2.45;;;1.33;;
57465;SDS011;67033;44.984;20.068;2023-04-25T11:46:42;4.68;;;1.30;;
57465;SDS011;67033;44.984;20.068;2023-04-25T11:49:08;9.10;;;2.58;;
57465;SDS011;67033;44.984;20.068;2023-04-25T11:51:40;7.47;;;1.70;;
57465;SDS011;67033;44.984;20.068;2023-04-25T11:54:08;3.83;;;1.35;;
57465;SDS011;67033;44.984;20.068;2023-04-25T11:56:34;1.73;;;0.80;;
57465;SDS011;67033;44.984;20.068;2023-04-25T11:59:01;1.10;;;1.00;;
57465;SDS011;67033;44.984;20.068;2023-04-25T12:01:28;3.22;;;1.50;;
57465;SDS011;67033;44.984;20.068;2023-04-25T12:03:55;2.40;;;1.13;;
57465;SDS011;67033;44.984;20.068;2023-04-25T12:06:31;2.08;;;1.08;;
57465;SDS011;67033;44.984;20.068;2023-04-25T12:09:01;7.45;;;1.60;;
57465;SDS011;67033;44.984;20.068;2023-04-25T12:11:32;2.42;;;1.38;;
57465;SDS011;67033;44.984;20.068;2023-04-25T12:14:03;2.13;;;1.00;;
57465;SDS011;67033;44.984;20.068;2023-04-25T12:16:44;3.80;;;1.60;;
57465;SDS011;67033;44.984;20.068;2023-04-25T12:21:41;5.68;;;1.70;;
57465;SDS011;67033;44.984;20.068;2023-04-25T12:26:48;4.00;;;1.80;;
57465;SDS011;67033;44.984;20.068;2023-04-25T12:29:16;1.88;;;1.55;;
57465;SDS011;67033;44.984;20.068;2023-04-25T12:31:46;7.50;;;2.40;;
57465;SDS011;67033;44.984;20.068;2023-04-25T12:34:12;2.35;;;1.63;;
57465;SDS011;67033;44.984;20.068;2023-04-25T12:36:38;2.75;;;1.60;;
57465;SDS011;67033;44.984;20.068;2023-04-25T12:39:04;2.33;;;2.13;;
57465;SDS011;67033;44.984;20.068;2023-04-25T12:41:30;4.75;;;1.42;;
57465;SDS011;67033;44.984;20.068;2023-04-25T12:43:56;3.13;;;1.60;;
57465;SDS011;67033;44.984;20.068;2023-04-25T12:46:22;2.53;;;1.20;;
57465;SDS011;67033;44.984;20.068;2023-04-25T12:48:48;4.00;;;1.10;;
57465;SDS011;67033;44.984;20.068;2023-04-25T12:51:14;1.95;;;1.27;;
57465;SDS011;67033;44.984;20.068;2023-04-25T12:53:40;2.67;;;1.55;;
57465;SDS011;67033;44.984;20.068;2023-04-25T12:56:07;2.03;;;1.50;;
57465;SDS011;67033;44.984;20.068;2023-04-25T12:58:33;1.33;;;1.15;;
57465;SDS011;67033;44.984;20.068;2023-04-25T13:00:59;1.30;;;1.20;;
57465;SDS011;67033;44.984;20.068;2023-04-25T13:03:25;1.60;;;0.98;;
57465;SDS011;67033;44.984;20.068;2023-04-25T13:05:51;5.25;;;1.38;;
57465;SDS011;67033;44.984;20.068;2023-04-25T13:08:20;1.73;;;1.30;;
57465;SDS011;67033;44.984;20.068;2023-04-25T13:10:49;1.27;;;1.17;;
57465;SDS011;67033;44.984;20.068;2023-04-25T13:13:15;2.22;;;1.48;;
57465;SDS011;67033;44.984;20.068;2023-04-25T13:15:41;1.42;;;1.00;;
57465;SDS011;67033;44.984;20.068;2023-04-25T13:18:07;2.80;;;1.17;;
57465;SDS011;67033;44.984;20.068;2023-04-25T13:20:33;2.20;;;1.60;;
57465;SDS011;67033;44.984;20.068;2023-04-25T13:23:00;1.73;;;1.42;;
57465;SDS011;67033;44.984;20.068;2023-04-25T13:25:26;2.42;;;1.13;;
57465;SDS011;67033;44.984;20.068;2023-04-25T13:27:51;2.28;;;1.23;;
57465;SDS011;67033;44.984;20.068;2023-04-25T13:30:17;1.02;;;0.73;;
57465;SDS011;67033;44.984;20.068;2023-04-25T13:32:43;1.65;;;1.00;;
57465;SDS011;67033;44.984;20.068;2023-04-25T13:35:11;1.85;;;0.95;;
57465;SDS011;67033;44.984;20.068;2023-04-25T13:37:38;1.02;;;0.93;;
57465;SDS011;67033;44.984;20.068;2023-04-25T13:40:05;3.97;;;1.20;;
57465;SDS011;67033;44.984;20.068;2023-04-25T13:42:34;1.40;;;1.10;;
57465;SDS011;67033;44.984;20.068;2023-04-25T13:45:01;2.28;;;1.30;;
57465;SDS011;67033;44.984;20.068;2023-04-25T13:47:27;2.25;;;1.10;;
57465;SDS011;67033;44.984;20.068;2023-04-25T13:49:53;4.15;;;1.48;;
57465;SDS011;67033;44.984;20.068;2023-04-25T13:52:19;3.25;;;1.05;;
57465;SDS011;67033;44.984;20.068;2023-04-25T13:54:45;1.00;;;1.00;;
57465;SDS011;67033;44.984;20.068;2023-04-25T13:57:11;3.80;;;1.15;;
57465;SDS011;67033;44.984;20.068;2023-04-25T13:59:38;1.30;;;1.20;;
57465;SDS011;67033;44.984;20.068;2023-04-25T14:02:06;2.42;;;1.20;;
57465;SDS011;67033;44.984;20.068;2023-04-25T14:04:32;1.38;;;1.00;;
57465;SDS011;67033;44.984;20.068;2023-04-25T14:06:58;2.25;;;1.20;;
57465;SDS011;67033;44.984;20.068;2023-04-25T14:09:24;3.20;;;1.92;;
57465;SDS011;67033;44.984;20.068;2023-04-25T14:11:52;2.65;;;2.15;;
57465;SDS011;67033;44.984;20.068;2023-04-25T14:14:18;4.43;;;2.25;;
57465;SDS011;67033;44.984;20.068;2023-04-25T14:16:45;4.45;;;2.50;;
57465;SDS011;67033;44.984;20.068;2023-04-25T14:19:13;3.95;;;1.00;;
57465;SDS011;67033;44.984;20.068;2023-04-25T14:21:39;2.40;;;1.23;;
57465;SDS011;67033;44.984;20.068;2023-04-25T14:24:06;4.28;;;1.20;;
57465;SDS011;67033;44.984;20.068;2023-04-25T14:26:33;2.42;;;1.08;;
57465;SDS011;67033;44.984;20.068;2023-04-25T14:28:59;1.77;;;1.00;;
57465;SDS011;67033;44.984;20.068;2023-04-25T14:31:25;1.15;;;0.80;;
57465;SDS011;67033;44.984;20.068;2023-04-25T14:33:51;0.88;;;0.85;;
57465;SDS011;67033;44.984;20.068;2023-04-25T14:36:17;1.30;;;0.90;;
57465;SDS011;67033;44.984;20.068;2023-04-25T14:38:43;2.53;;;0.95;;
57465;SDS011;67033;44.984;20.068;2023-04-25T14:41:09;2.45;;;1.10;;
57465;SDS011;67033;44.984;20.068;2023-04-25T14:43:35;2.00;;;1.00;;
57465;SDS011;67033;44.984;20.068;2023-04-25T14:46:02;4.80;;;1.10;;